Terminal Aerodrome Forecast
Issued by NWS

Home | Current Version | Previous Version | Text Only | Print | Product List | Glossary On
Versions: 1 2 3 4 5 6 7 8 9 10 11 12 13 14
000
FTAK31 PAFA 251740
TAFAGA
TAF
PAGA 251740Z 2518/2618 12004KT P6SM FEW025 SCT045 OVC070
     FM260000 14011KT P6SM VCSH SCT025 BKN050 BKN100
     FM260500 15005KT P6SM BKN025 OVC050=

USA.gov is the U.S. government's official web portal to all federal, state and local government web resources and services.